sensor_id;sensor_type;location;lat;lon;timestamp;P1;durP1;ratioP1;P2;durP2;ratioP2
64157;SDS011;50449;51.528;5.076;2022-09-25T00:00:25;29.60;;;27.67;;
64157;SDS011;50449;51.528;5.076;2022-09-25T00:02:51;29.63;;;27.92;;
64157;SDS011;50449;51.528;5.076;2022-09-25T00:05:16;29.13;;;27.45;;
64157;SDS011;50449;51.528;5.076;2022-09-25T00:07:42;28.85;;;26.95;;
64157;SDS011;50449;51.528;5.076;2022-09-25T00:10:07;28.30;;;26.50;;
64157;SDS011;50449;51.528;5.076;2022-09-25T00:12:33;29.13;;;27.35;;
64157;SDS011;50449;51.528;5.076;2022-09-25T00:14:58;29.17;;;27.08;;
64157;SDS011;50449;51.528;5.076;2022-09-25T00:17:24;27.88;;;26.05;;
64157;SDS011;50449;51.528;5.076;2022-09-25T00:19:51;27.15;;;25.30;;
64157;SDS011;50449;51.528;5.076;2022-09-25T00:22:17;28.15;;;26.35;;
64157;SDS011;50449;51.528;5.076;2022-09-25T00:24:47;28.00;;;26.50;;
64157;SDS011;50449;51.528;5.076;2022-09-25T00:27:14;28.95;;;27.05;;
64157;SDS011;50449;51.528;5.076;2022-09-25T00:29:40;29.48;;;27.88;;
64157;SDS011;50449;51.528;5.076;2022-09-25T00:32:07;27.95;;;26.23;;
64157;SDS011;50449;51.528;5.076;2022-09-25T00:34:33;28.25;;;26.42;;
64157;SDS011;50449;51.528;5.076;2022-09-25T00:36:59;28.92;;;27.05;;
64157;SDS011;50449;51.528;5.076;2022-09-25T00:39:24;27.92;;;26.42;;
64157;SDS011;50449;51.528;5.076;2022-09-25T00:41:51;28.55;;;26.48;;
64157;SDS011;50449;51.528;5.076;2022-09-25T00:47:18;28.42;;;26.08;;
64157;SDS011;50449;51.528;5.076;2022-09-25T00:49:47;27.40;;;25.90;;
64157;SDS011;50449;51.528;5.076;2022-09-25T00:52:14;27.70;;;26.10;;
64157;SDS011;50449;51.528;5.076;2022-09-25T00:54:48;29.30;;;27.50;;
64157;SDS011;50449;51.528;5.076;2022-09-25T00:57:17;27.27;;;25.58;;
64157;SDS011;50449;51.528;5.076;2022-09-25T00:59:45;29.42;;;27.38;;
64157;SDS011;50449;51.528;5.076;2022-09-25T01:02:16;27.65;;;25.90;;
64157;SDS011;50449;51.528;5.076;2022-09-25T01:04:53;25.42;;;23.88;;
64157;SDS011;50449;51.528;5.076;2022-09-25T01:07:24;28.17;;;26.45;;
64157;SDS011;50449;51.528;5.076;2022-09-25T01:09:49;29.48;;;27.83;;
64157;SDS011;50449;51.528;5.076;2022-09-25T01:12:15;27.77;;;25.35;;
64157;SDS011;50449;51.528;5.076;2022-09-25T01:14:40;27.20;;;25.27;;
64157;SDS011;50449;51.528;5.076;2022-09-25T01:25:43;27.58;;;25.52;;
64157;SDS011;50449;51.528;5.076;2022-09-25T01:28:38;27.35;;;25.42;;
64157;SDS011;50449;51.528;5.076;2022-09-25T01:31:22;27.30;;;25.77;;
64157;SDS011;50449;51.528;5.076;2022-09-25T01:38:50;27.70;;;26.15;;
64157;SDS011;50449;51.528;5.076;2022-09-25T01:41:32;26.35;;;24.90;;
64157;SDS011;50449;51.528;5.076;2022-09-25T01:44:11;27.40;;;25.58;;
64157;SDS011;50449;51.528;5.076;2022-09-25T01:46:46;27.88;;;26.05;;
64157;SDS011;50449;51.528;5.076;2022-09-25T01:49:19;28.23;;;26.65;;
64157;SDS011;50449;51.528;5.076;2022-09-25T01:51:52;27.50;;;25.88;;
64157;SDS011;50449;51.528;5.076;2022-09-25T01:54:20;26.42;;;25.00;;
64157;SDS011;50449;51.528;5.076;2022-09-25T01:57:29;27.73;;;26.13;;
64157;SDS011;50449;51.528;5.076;2022-09-25T02:00:00;26.17;;;24.65;;
64157;SDS011;50449;51.528;5.076;2022-09-25T02:02:40;27.02;;;25.42;;
64157;SDS011;50449;51.528;5.076;2022-09-25T02:05:15;27.80;;;26.23;;
64157;SDS011;50449;51.528;5.076;2022-09-25T02:07:53;27.60;;;26.05;;
64157;SDS011;50449;51.528;5.076;2022-09-25T02:10:23;27.23;;;25.73;;
64157;SDS011;50449;51.528;5.076;2022-09-25T02:12:54;27.92;;;26.00;;
64157;SDS011;50449;51.528;5.076;2022-09-25T02:15:24;27.60;;;26.10;;
64157;SDS011;50449;51.528;5.076;2022-09-25T02:17:55;26.45;;;24.98;;
64157;SDS011;50449;51.528;5.076;2022-09-25T02:21:03;28.80;;;27.08;;
64157;SDS011;50449;51.528;5.076;2022-09-25T02:24:06;28.17;;;26.55;;
64157;SDS011;50449;51.528;5.076;2022-09-25T02:26:37;27.35;;;25.48;;
64157;SDS011;50449;51.528;5.076;2022-09-25T02:29:03;27.00;;;25.55;;
64157;SDS011;50449;51.528;5.076;2022-09-25T02:31:36;27.98;;;25.90;;
64157;SDS011;50449;51.528;5.076;2022-09-25T02:34:06;28.05;;;26.42;;
64157;SDS011;50449;51.528;5.076;2022-09-25T02:36:31;26.20;;;24.58;;
64157;SDS011;50449;51.528;5.076;2022-09-25T02:38:58;27.65;;;26.10;;
64157;SDS011;50449;51.528;5.076;2022-09-25T02:43:57;28.05;;;26.08;;
64157;SDS011;50449;51.528;5.076;2022-09-25T02:49:22;26.52;;;25.10;;
64157;SDS011;50449;51.528;5.076;2022-09-25T02:51:57;29.38;;;27.08;;
64157;SDS011;50449;51.528;5.076;2022-09-25T02:54:30;26.85;;;25.25;;
64157;SDS011;50449;51.528;5.076;2022-09-25T02:57:14;27.52;;;25.73;;
64157;SDS011;50449;51.528;5.076;2022-09-25T02:59:49;27.73;;;25.95;;
64157;SDS011;50449;51.528;5.076;2022-09-25T03:02:18;28.33;;;26.52;;
64157;SDS011;50449;51.528;5.076;2022-09-25T03:04:46;26.63;;;25.17;;
64157;SDS011;50449;51.528;5.076;2022-09-25T03:07:13;27.08;;;25.35;;
64157;SDS011;50449;51.528;5.076;2022-09-25T03:09:41;28.17;;;26.48;;
64157;SDS011;50449;51.528;5.076;2022-09-25T03:12:11;28.70;;;26.83;;
64157;SDS011;50449;51.528;5.076;2022-09-25T03:14:37;27.38;;;25.67;;
64157;SDS011;50449;51.528;5.076;2022-09-25T03:17:02;27.88;;;25.88;;
64157;SDS011;50449;51.528;5.076;2022-09-25T03:19:31;26.25;;;24.65;;
64157;SDS011;50449;51.528;5.076;2022-09-25T03:21:58;27.80;;;26.00;;
64157;SDS011;50449;51.528;5.076;2022-09-25T03:24:24;26.85;;;25.35;;
64157;SDS011;50449;51.528;5.076;2022-09-25T03:26:50;28.80;;;26.80;;
64157;SDS011;50449;51.528;5.076;2022-09-25T03:29:16;27.33;;;25.67;;
64157;SDS011;50449;51.528;5.076;2022-09-25T03:31:42;28.42;;;26.63;;
64157;SDS011;50449;51.528;5.076;2022-09-25T03:34:10;27.10;;;25.60;;
64157;SDS011;50449;51.528;5.076;2022-09-25T03:36:37;26.90;;;25.27;;
64157;SDS011;50449;51.528;5.076;2022-09-25T03:39:03;27.33;;;25.73;;
64157;SDS011;50449;51.528;5.076;2022-09-25T03:41:30;27.55;;;25.75;;
64157;SDS011;50449;51.528;5.076;2022-09-25T03:43:57;28.25;;;26.48;;
64157;SDS011;50449;51.528;5.076;2022-09-25T03:46:31;27.73;;;25.92;;
64157;SDS011;50449;51.528;5.076;2022-09-25T03:48:58;27.35;;;25.83;;
64157;SDS011;50449;51.528;5.076;2022-09-25T03:51:25;27.70;;;25.40;;
64157;SDS011;50449;51.528;5.076;2022-09-25T03:53:51;28.02;;;26.02;;
64157;SDS011;50449;51.528;5.076;2022-09-25T03:56:18;25.42;;;23.73;;
64157;SDS011;50449;51.528;5.076;2022-09-25T03:58:46;26.63;;;24.83;;
64157;SDS011;50449;51.528;5.076;2022-09-25T04:01:13;26.60;;;24.80;;
64157;SDS011;50449;51.528;5.076;2022-09-25T04:03:40;26.55;;;24.95;;
64157;SDS011;50449;51.528;5.076;2022-09-25T04:08:34;25.15;;;23.75;;
64157;SDS011;50449;51.528;5.076;2022-09-25T04:11:00;29.15;;;27.05;;
64157;SDS011;50449;51.528;5.076;2022-09-25T04:13:27;27.75;;;26.00;;
64157;SDS011;50449;51.528;5.076;2022-09-25T04:15:55;28.13;;;26.40;;
64157;SDS011;50449;51.528;5.076;2022-09-25T04:18:22;26.45;;;24.95;;
64157;SDS011;50449;51.528;5.076;2022-09-25T04:20:51;26.17;;;24.83;;
64157;SDS011;50449;51.528;5.076;2022-09-25T04:23:16;25.80;;;24.40;;
64157;SDS011;50449;51.528;5.076;2022-09-25T04:25:42;25.95;;;24.50;;
64157;SDS011;50449;51.528;5.076;2022-09-25T04:28:09;26.33;;;24.50;;
64157;SDS011;50449;51.528;5.076;2022-09-25T04:30:34;25.55;;;24.15;;
64157;SDS011;50449;51.528;5.076;2022-09-25T04:33:03;27.42;;;25.73;;
64157;SDS011;50449;51.528;5.076;2022-09-25T04:35:47;26.48;;;24.98;;
64157;SDS011;50449;51.528;5.076;2022-09-25T04:38:12;29.02;;;27.10;;
64157;SDS011;50449;51.528;5.076;2022-09-25T04:40:38;28.35;;;26.52;;
64157;SDS011;50449;51.528;5.076;2022-09-25T04:43:04;26.83;;;25.00;;
64157;SDS011;50449;51.528;5.076;2022-09-25T04:45:32;27.52;;;25.40;;
64157;SDS011;50449;51.528;5.076;2022-09-25T04:47:59;27.23;;;25.48;;
64157;SDS011;50449;51.528;5.076;2022-09-25T04:50:26;26.73;;;25.15;;
64157;SDS011;50449;51.528;5.076;2022-09-25T04:52:52;26.13;;;24.42;;
64157;SDS011;50449;51.528;5.076;2022-09-25T04:55:21;26.75;;;25.05;;
64157;SDS011;50449;51.528;5.076;2022-09-25T04:57:55;27.15;;;25.55;;
64157;SDS011;50449;51.528;5.076;2022-09-25T05:00:22;26.02;;;24.40;;
64157;SDS011;50449;51.528;5.076;2022-09-25T05:02:50;26.47;;;24.60;;
64157;SDS011;50449;51.528;5.076;2022-09-25T05:05:16;27.23;;;25.40;;
64157;SDS011;50449;51.528;5.076;2022-09-25T05:07:52;26.38;;;24.67;;
64157;SDS011;50449;51.528;5.076;2022-09-25T05:10:19;25.67;;;24.17;;
64157;SDS011;50449;51.528;5.076;2022-09-25T05:12:45;25.52;;;24.10;;
64157;SDS011;50449;51.528;5.076;2022-09-25T05:15:12;27.95;;;26.30;;
64157;SDS011;50449;51.528;5.076;2022-09-25T05:17:38;28.05;;;26.55;;
64157;SDS011;50449;51.528;5.076;2022-09-25T05:20:04;25.77;;;24.33;;
64157;SDS011;50449;51.528;5.076;2022-09-25T05:22:29;24.80;;;23.48;;
64157;SDS011;50449;51.528;5.076;2022-09-25T05:25:01;28.02;;;26.33;;
64157;SDS011;50449;51.528;5.076;2022-09-25T05:27:26;25.65;;;24.23;;
64157;SDS011;50449;51.528;5.076;2022-09-25T05:29:52;25.20;;;23.70;;
64157;SDS011;50449;51.528;5.076;2022-09-25T05:32:17;28.63;;;26.67;;
64157;SDS011;50449;51.528;5.076;2022-09-25T05:34:43;25.60;;;24.10;;
64157;SDS011;50449;51.528;5.076;2022-09-25T05:37:08;28.20;;;26.40;;
64157;SDS011;50449;51.528;5.076;2022-09-25T05:39:34;25.90;;;24.50;;
64157;SDS011;50449;51.528;5.076;2022-09-25T05:42:01;26.45;;;24.98;;
64157;SDS011;50449;51.528;5.076;2022-09-25T05:44:27;27.10;;;25.60;;
64157;SDS011;50449;51.528;5.076;2022-09-25T05:46:53;25.50;;;24.10;;
64157;SDS011;50449;51.528;5.076;2022-09-25T05:49:21;25.35;;;23.70;;
64157;SDS011;50449;51.528;5.076;2022-09-25T05:51:47;25.73;;;24.02;;
64157;SDS011;50449;51.528;5.076;2022-09-25T05:54:13;26.65;;;25.00;;
64157;SDS011;50449;51.528;5.076;2022-09-25T05:56:38;25.00;;;23.63;;
64157;SDS011;50449;51.528;5.076;2022-09-25T05:59:03;28.33;;;26.45;;
64157;SDS011;50449;51.528;5.076;2022-09-25T06:01:29;25.85;;;24.42;;
64157;SDS011;50449;51.528;5.076;2022-09-25T06:03:54;26.33;;;24.83;;
64157;SDS011;50449;51.528;5.076;2022-09-25T06:06:20;25.83;;;24.13;;
64157;SDS011;50449;51.528;5.076;2022-09-25T06:08:45;25.35;;;23.85;;
64157;SDS011;50449;51.528;5.076;2022-09-25T06:11:11;26.67;;;25.08;;
64157;SDS011;50449;51.528;5.076;2022-09-25T06:13:36;25.10;;;23.52;;
64157;SDS011;50449;51.528;5.076;2022-09-25T06:16:02;25.40;;;23.70;;
64157;SDS011;50449;51.528;5.076;2022-09-25T06:18:29;26.48;;;24.73;;
64157;SDS011;50449;51.528;5.076;2022-09-25T06:21:02;24.95;;;23.45;;
64157;SDS011;50449;51.528;5.076;2022-09-25T06:23:29;26.13;;;24.33;;
64157;SDS011;50449;51.528;5.076;2022-09-25T06:25:58;25.15;;;23.65;;
64157;SDS011;50449;51.528;5.076;2022-09-25T06:28:25;26.23;;;24.42;;
64157;SDS011;50449;51.528;5.076;2022-09-25T06:30:50;25.45;;;23.77;;
64157;SDS011;50449;51.528;5.076;2022-09-25T06:33:16;27.05;;;25.35;;
64157;SDS011;50449;51.528;5.076;2022-09-25T06:35:42;26.42;;;24.30;;
64157;SDS011;50449;51.528;5.076;2022-09-25T06:38:09;26.08;;;24.38;;
64157;SDS011;50449;51.528;5.076;2022-09-25T06:40:35;27.15;;;25.45;;
64157;SDS011;50449;51.528;5.076;2022-09-25T06:43:02;26.52;;;24.65;;
64157;SDS011;50449;51.528;5.076;2022-09-25T06:45:29;25.17;;;23.40;;
64157;SDS011;50449;51.528;5.076;2022-09-25T06:48:04;24.90;;;22.77;;
64157;SDS011;50449;51.528;5.076;2022-09-25T06:50:39;26.05;;;24.27;;
64157;SDS011;50449;51.528;5.076;2022-09-25T06:53:05;25.70;;;23.88;;
64157;SDS011;50449;51.528;5.076;2022-09-25T06:55:31;24.40;;;23.00;;
64157;SDS011;50449;51.528;5.076;2022-09-25T06:57:57;24.98;;;23.38;;
64157;SDS011;50449;51.528;5.076;2022-09-25T07:00:23;26.80;;;25.20;;
64157;SDS011;50449;51.528;5.076;2022-09-25T07:02:48;25.20;;;23.70;;
64157;SDS011;50449;51.528;5.076;2022-09-25T07:05:32;24.90;;;23.42;;
64157;SDS011;50449;51.528;5.076;2022-09-25T07:08:00;24.77;;;23.17;;
64157;SDS011;50449;51.528;5.076;2022-09-25T07:10:25;25.70;;;24.08;;
64157;SDS011;50449;51.528;5.076;2022-09-25T07:12:51;24.63;;;23.15;;
64157;SDS011;50449;51.528;5.076;2022-09-25T07:15:16;26.70;;;24.90;;
64157;SDS011;50449;51.528;5.076;2022-09-25T07:17:42;24.88;;;23.40;;
64157;SDS011;50449;51.528;5.076;2022-09-25T07:20:09;24.98;;;23.42;;
64157;SDS011;50449;51.528;5.076;2022-09-25T07:22:38;25.45;;;24.05;;
64157;SDS011;50449;51.528;5.076;2022-09-25T07:25:10;26.38;;;24.33;;
64157;SDS011;50449;51.528;5.076;2022-09-25T07:27:38;25.67;;;24.08;;
64157;SDS011;50449;51.528;5.076;2022-09-25T07:30:04;26.98;;;24.48;;
64157;SDS011;50449;51.528;5.076;2022-09-25T07:32:30;25.63;;;23.83;;
64157;SDS011;50449;51.528;5.076;2022-09-25T07:34:56;24.70;;;23.33;;
64157;SDS011;50449;51.528;5.076;2022-09-25T07:37:22;27.42;;;25.15;;
64157;SDS011;50449;51.528;5.076;2022-09-25T07:39:48;25.10;;;23.55;;
64157;SDS011;50449;51.528;5.076;2022-09-25T07:42:14;25.20;;;23.50;;
64157;SDS011;50449;51.528;5.076;2022-09-25T07:44:40;25.00;;;23.48;;
64157;SDS011;50449;51.528;5.076;2022-09-25T07:47:06;23.75;;;22.40;;
64157;SDS011;50449;51.528;5.076;2022-09-25T07:49:32;25.58;;;23.92;;
64157;SDS011;50449;51.528;5.076;2022-09-25T07:51:59;24.85;;;23.45;;
64157;SDS011;50449;51.528;5.076;2022-09-25T07:54:25;24.65;;;23.25;;
64157;SDS011;50449;51.528;5.076;2022-09-25T07:56:50;24.23;;;22.83;;
64157;SDS011;50449;51.528;5.076;2022-09-25T07:59:16;24.58;;;22.95;;
64157;SDS011;50449;51.528;5.076;2022-09-25T08:01:41;25.48;;;23.55;;
64157;SDS011;50449;51.528;5.076;2022-09-25T08:04:06;25.17;;;23.33;;
64157;SDS011;50449;51.528;5.076;2022-09-25T08:06:35;25.33;;;23.77;;
64157;SDS011;50449;51.528;5.076;2022-09-25T08:09:01;24.05;;;22.42;;
64157;SDS011;50449;51.528;5.076;2022-09-25T08:11:26;25.98;;;24.08;;
64157;SDS011;50449;51.528;5.076;2022-09-25T08:13:53;23.50;;;22.00;;
64157;SDS011;50449;51.528;5.076;2022-09-25T08:16:19;24.08;;;22.48;;
64157;SDS011;50449;51.528;5.076;2022-09-25T08:18:46;23.63;;;22.13;;
64157;SDS011;50449;51.528;5.076;2022-09-25T08:21:13;23.48;;;22.20;;
64157;SDS011;50449;51.528;5.076;2022-09-25T08:23:41;26.13;;;24.52;;
64157;SDS011;50449;51.528;5.076;2022-09-25T08:26:07;24.02;;;22.73;;
64157;SDS011;50449;51.528;5.076;2022-09-25T08:28:33;23.48;;;22.27;;
64157;SDS011;50449;51.528;5.076;2022-09-25T08:31:00;25.65;;;23.73;;
64157;SDS011;50449;51.528;5.076;2022-09-25T08:33:43;23.52;;;21.98;;
64157;SDS011;50449;51.528;5.076;2022-09-25T08:36:09;23.50;;;21.90;;
64157;SDS011;50449;51.528;5.076;2022-09-25T08:38:39;23.58;;;22.33;;
64157;SDS011;50449;51.528;5.076;2022-09-25T08:41:13;25.13;;;23.30;;
64157;SDS011;50449;51.528;5.076;2022-09-25T08:43:51;23.60;;;21.98;;
64157;SDS011;50449;51.528;5.076;2022-09-25T08:46:29;26.08;;;23.98;;
64157;SDS011;50449;51.528;5.076;2022-09-25T08:49:23;24.00;;;22.47;;
64157;SDS011;50449;51.528;5.076;2022-09-25T08:52:13;24.75;;;23.02;;
64157;SDS011;50449;51.528;5.076;2022-09-25T08:54:43;26.02;;;24.30;;
64157;SDS011;50449;51.528;5.076;2022-09-25T08:57:22;23.80;;;22.25;;
64157;SDS011;50449;51.528;5.076;2022-09-25T09:00:21;23.92;;;22.42;;
64157;SDS011;50449;51.528;5.076;2022-09-25T09:02:54;24.42;;;22.67;;
64157;SDS011;50449;51.528;5.076;2022-09-25T09:05:28;23.08;;;21.42;;
64157;SDS011;50449;51.528;5.076;2022-09-25T09:08:06;22.70;;;21.25;;
64157;SDS011;50449;51.528;5.076;2022-09-25T09:10:45;23.48;;;21.90;;
64157;SDS011;50449;51.528;5.076;2022-09-25T09:19:12;23.73;;;21.63;;
64157;SDS011;50449;51.528;5.076;2022-09-25T09:21:44;23.63;;;22.23;;
64157;SDS011;50449;51.528;5.076;2022-09-25T09:30:09;23.13;;;21.25;;
64157;SDS011;50449;51.528;5.076;2022-09-25T09:41:26;22.92;;;21.60;;
64157;SDS011;50449;51.528;5.076;2022-09-25T09:49:54;25.05;;;23.00;;
64157;SDS011;50449;51.528;5.076;2022-09-25T09:52:29;23.63;;;22.15;;
64157;SDS011;50449;51.528;5.076;2022-09-25T09:55:15;24.70;;;23.08;;
64157;SDS011;50449;51.528;5.076;2022-09-25T09:57:48;22.83;;;21.60;;
64157;SDS011;50449;51.528;5.076;2022-09-25T10:00:20;24.40;;;22.85;;
64157;SDS011;50449;51.528;5.076;2022-09-25T10:02:49;24.02;;;22.45;;
64157;SDS011;50449;51.528;5.076;2022-09-25T10:05:22;23.77;;;22.35;;
64157;SDS011;50449;51.528;5.076;2022-09-25T10:07:56;23.95;;;22.35;;
64157;SDS011;50449;51.528;5.076;2022-09-25T10:10:23;24.30;;;22.98;;
64157;SDS011;50449;51.528;5.076;2022-09-25T10:12:58;25.10;;;23.38;;
64157;SDS011;50449;51.528;5.076;2022-09-25T10:15:38;25.75;;;23.83;;
64157;SDS011;50449;51.528;5.076;2022-09-25T10:18:27;24.27;;;22.70;;
64157;SDS011;50449;51.528;5.076;2022-09-25T10:21:01;26.88;;;25.05;;
64157;SDS011;50449;51.528;5.076;2022-09-25T10:26:26;24.40;;;22.95;;
64157;SDS011;50449;51.528;5.076;2022-09-25T10:29:01;24.40;;;22.88;;
64157;SDS011;50449;51.528;5.076;2022-09-25T10:31:49;23.98;;;22.67;;
64157;SDS011;50449;51.528;5.076;2022-09-25T10:34:22;24.35;;;23.15;;
64157;SDS011;50449;51.528;5.076;2022-09-25T10:36:49;25.05;;;22.88;;
64157;SDS011;50449;51.528;5.076;2022-09-25T10:42:04;25.05;;;23.55;;
64157;SDS011;50449;51.528;5.076;2022-09-25T10:44:50;25.05;;;23.77;;
64157;SDS011;50449;51.528;5.076;2022-09-25T10:52:50;26.45;;;25.05;;
64157;SDS011;50449;51.528;5.076;2022-09-25T11:03:25;25.23;;;23.80;;
64157;SDS011;50449;51.528;5.076;2022-09-25T11:06:06;27.33;;;25.73;;
64157;SDS011;50449;51.528;5.076;2022-09-25T11:08:35;28.08;;;26.48;;
64157;SDS011;50449;51.528;5.076;2022-09-25T11:11:03;25.95;;;24.63;;
64157;SDS011;50449;51.528;5.076;2022-09-25T11:13:48;27.52;;;26.02;;
64157;SDS011;50449;51.528;5.076;2022-09-25T11:16:17;27.25;;;25.65;;
64157;SDS011;50449;51.528;5.076;2022-09-25T11:21:21;27.65;;;26.15;;
64157;SDS011;50449;51.528;5.076;2022-09-25T11:23:58;28.23;;;26.40;;
64157;SDS011;50449;51.528;5.076;2022-09-25T11:26:40;27.75;;;26.08;;
64157;SDS011;50449;51.528;5.076;2022-09-25T11:29:31;26.52;;;25.05;;
64157;SDS011;50449;51.528;5.076;2022-09-25T11:32:14;26.48;;;24.98;;
64157;SDS011;50449;51.528;5.076;2022-09-25T11:43:10;27.58;;;25.98;;
64157;SDS011;50449;51.528;5.076;2022-09-25T11:45:42;27.98;;;26.48;;
64157;SDS011;50449;51.528;5.076;2022-09-25T11:48:15;26.27;;;24.55;;
64157;SDS011;50449;51.528;5.076;2022-09-25T11:50:48;26.95;;;25.48;;
64157;SDS011;50449;51.528;5.076;2022-09-25T11:58:50;28.65;;;27.25;;
64157;SDS011;50449;51.528;5.076;2022-09-25T12:06:50;28.10;;;26.38;;
64157;SDS011;50449;51.528;5.076;2022-09-25T12:12:01;27.77;;;26.27;;
64157;SDS011;50449;51.528;5.076;2022-09-25T12:14:35;27.27;;;25.73;;
64157;SDS011;50449;51.528;5.076;2022-09-25T12:22:13;26.70;;;25.17;;
64157;SDS011;50449;51.528;5.076;2022-09-25T12:27:47;29.35;;;27.63;;
64157;SDS011;50449;51.528;5.076;2022-09-25T12:30:19;28.02;;;26.35;;
64157;SDS011;50449;51.528;5.076;2022-09-25T12:38:26;27.92;;;26.42;;
64157;SDS011;50449;51.528;5.076;2022-09-25T12:41:17;28.90;;;27.40;;
64157;SDS011;50449;51.528;5.076;2022-09-25T12:43:52;28.98;;;27.27;;
64157;SDS011;50449;51.528;5.076;2022-09-25T12:46:41;31.15;;;28.85;;
64157;SDS011;50449;51.528;5.076;2022-09-25T12:49:16;27.90;;;26.55;;
64157;SDS011;50449;51.528;5.076;2022-09-25T12:51:49;30.00;;;28.40;;
64157;SDS011;50449;51.528;5.076;2022-09-25T12:54:33;28.77;;;27.17;;
64157;SDS011;50449;51.528;5.076;2022-09-25T12:57:20;28.60;;;26.92;;
64157;SDS011;50449;51.528;5.076;2022-09-25T13:02:53;30.42;;;28.73;;
64157;SDS011;50449;51.528;5.076;2022-09-25T13:10:42;28.42;;;27.02;;
64157;SDS011;50449;51.528;5.076;2022-09-25T13:13:23;29.50;;;28.00;;
64157;SDS011;50449;51.528;5.076;2022-09-25T13:15:52;31.60;;;29.92;;
64157;SDS011;50449;51.528;5.076;2022-09-25T13:18:23;30.70;;;29.02;;
64157;SDS011;50449;51.528;5.076;2022-09-25T13:25:56;31.75;;;30.08;;
64157;SDS011;50449;51.528;5.076;2022-09-25T13:28:32;30.27;;;28.88;;
64157;SDS011;50449;51.528;5.076;2022-09-25T13:33:40;29.23;;;27.80;;
64157;SDS011;50449;51.528;5.076;2022-09-25T13:39:02;30.33;;;28.77;;
64157;SDS011;50449;51.528;5.076;2022-09-25T13:42:03;30.45;;;28.80;;
64157;SDS011;50449;51.528;5.076;2022-09-25T13:49:47;29.45;;;27.85;;
64157;SDS011;50449;51.528;5.076;2022-09-25T13:58:25;30.05;;;28.55;;
64157;SDS011;50449;51.528;5.076;2022-09-25T14:00:56;31.08;;;29.35;;
64157;SDS011;50449;51.528;5.076;2022-09-25T14:05:55;28.83;;;27.33;;
64157;SDS011;50449;51.528;5.076;2022-09-25T14:08:22;30.63;;;28.95;;
64157;SDS011;50449;51.528;5.076;2022-09-25T14:10:50;29.60;;;28.02;;
64157;SDS011;50449;51.528;5.076;2022-09-25T14:13:21;30.65;;;29.15;;
64157;SDS011;50449;51.528;5.076;2022-09-25T14:15:49;30.20;;;28.60;;
64157;SDS011;50449;51.528;5.076;2022-09-25T14:18:23;30.70;;;28.83;;
64157;SDS011;50449;51.528;5.076;2022-09-25T14:20:57;31.65;;;29.85;;
64157;SDS011;50449;51.528;5.076;2022-09-25T14:23:24;30.25;;;28.70;;
64157;SDS011;50449;51.528;5.076;2022-09-25T14:26:00;31.85;;;30.08;;
64157;SDS011;50449;51.528;5.076;2022-09-25T14:28:32;31.90;;;30.00;;
64157;SDS011;50449;51.528;5.076;2022-09-25T14:46:24;30.30;;;28.67;;
64157;SDS011;50449;51.528;5.076;2022-09-25T14:48:51;30.13;;;28.52;;
64157;SDS011;50449;51.528;5.076;2022-09-25T14:51:39;30.98;;;29.25;;
64157;SDS011;50449;51.528;5.076;2022-09-25T14:54:09;32.55;;;30.77;;
64157;SDS011;50449;51.528;5.076;2022-09-25T14:56:39;32.05;;;29.88;;
64157;SDS011;50449;51.528;5.076;2022-09-25T14:59:10;30.65;;;29.05;;
64157;SDS011;50449;51.528;5.076;2022-09-25T15:01:58;32.63;;;30.40;;
64157;SDS011;50449;51.528;5.076;2022-09-25T15:04:28;33.88;;;31.98;;
64157;SDS011;50449;51.528;5.076;2022-09-25T15:07:00;31.92;;;30.13;;
64157;SDS011;50449;51.528;5.076;2022-09-25T15:09:36;30.05;;;28.55;;
64157;SDS011;50449;51.528;5.076;2022-09-25T15:12:32;29.83;;;28.13;;
64157;SDS011;50449;51.528;5.076;2022-09-25T15:15:02;31.75;;;30.05;;
64157;SDS011;50449;51.528;5.076;2022-09-25T15:17:51;29.77;;;28.15;;
64157;SDS011;50449;51.528;5.076;2022-09-25T15:20:22;29.85;;;28.35;;
64157;SDS011;50449;51.528;5.076;2022-09-25T15:23:07;31.55;;;29.92;;
64157;SDS011;50449;51.528;5.076;2022-09-25T15:25:42;30.83;;;29.23;;
64157;SDS011;50449;51.528;5.076;2022-09-25T15:28:13;33.65;;;31.92;;
64157;SDS011;50449;51.528;5.076;2022-09-25T15:30:42;32.92;;;31.27;;
64157;SDS011;50449;51.528;5.076;2022-09-25T15:33:19;31.50;;;29.90;;
64157;SDS011;50449;51.528;5.076;2022-09-25T15:35:53;32.05;;;30.38;;
64157;SDS011;50449;51.528;5.076;2022-09-25T15:38:30;33.67;;;31.77;;
64157;SDS011;50449;51.528;5.076;2022-09-25T15:40:57;31.90;;;30.30;;
64157;SDS011;50449;51.528;5.076;2022-09-25T15:43:23;32.35;;;30.55;;
64157;SDS011;50449;51.528;5.076;2022-09-25T15:48:51;31.35;;;29.85;;
64157;SDS011;50449;51.528;5.076;2022-09-25T15:51:23;31.20;;;29.70;;
64157;SDS011;50449;51.528;5.076;2022-09-25T15:53:54;33.53;;;31.55;;
64157;SDS011;50449;51.528;5.076;2022-09-25T15:56:27;32.35;;;30.65;;
64157;SDS011;50449;51.528;5.076;2022-09-25T16:01:23;31.52;;;30.02;;
64157;SDS011;50449;51.528;5.076;2022-09-25T16:04:28;33.55;;;31.48;;
64157;SDS011;50449;51.528;5.076;2022-09-25T16:12:48;32.08;;;30.48;;
64157;SDS011;50449;51.528;5.076;2022-09-25T16:17:57;30.88;;;29.23;;
64157;SDS011;50449;51.528;5.076;2022-09-25T16:22:59;31.92;;;30.33;;
64157;SDS011;50449;51.528;5.076;2022-09-25T16:25:32;31.52;;;29.63;;
64157;SDS011;50449;51.528;5.076;2022-09-25T16:28:01;31.10;;;29.30;;
64157;SDS011;50449;51.528;5.076;2022-09-25T16:30:29;31.10;;;29.60;;
64157;SDS011;50449;51.528;5.076;2022-09-25T16:32:57;31.38;;;29.67;;
64157;SDS011;50449;51.528;5.076;2022-09-25T16:35:34;32.13;;;30.42;;
64157;SDS011;50449;51.528;5.076;2022-09-25T16:38:02;32.63;;;31.02;;
64157;SDS011;50449;51.528;5.076;2022-09-25T16:40:29;31.77;;;29.88;;
64157;SDS011;50449;51.528;5.076;2022-09-25T16:43:02;32.95;;;30.92;;
64157;SDS011;50449;51.528;5.076;2022-09-25T16:45:57;32.85;;;30.98;;
64157;SDS011;50449;51.528;5.076;2022-09-25T16:48:36;30.58;;;29.00;;
64157;SDS011;50449;51.528;5.076;2022-09-25T16:51:24;34.17;;;31.67;;
64157;SDS011;50449;51.528;5.076;2022-09-25T16:53:54;30.88;;;29.27;;
64157;SDS011;50449;51.528;5.076;2022-09-25T16:56:23;33.58;;;31.42;;
64157;SDS011;50449;51.528;5.076;2022-09-25T16:58:50;32.75;;;30.85;;
64157;SDS011;50449;51.528;5.076;2022-09-25T17:01:16;33.50;;;31.60;;
64157;SDS011;50449;51.528;5.076;2022-09-25T17:03:42;31.67;;;30.08;;
64157;SDS011;50449;51.528;5.076;2022-09-25T17:06:21;31.98;;;30.27;;
64157;SDS011;50449;51.528;5.076;2022-09-25T17:08:48;31.75;;;30.05;;
64157;SDS011;50449;51.528;5.076;2022-09-25T17:11:15;32.88;;;31.17;;
64157;SDS011;50449;51.528;5.076;2022-09-25T17:13:42;31.40;;;29.80;;
64157;SDS011;50449;51.528;5.076;2022-09-25T17:16:08;32.05;;;30.42;;
64157;SDS011;50449;51.528;5.076;2022-09-25T17:18:34;32.15;;;30.55;;
64157;SDS011;50449;51.528;5.076;2022-09-25T17:21:00;31.77;;;30.17;;
64157;SDS011;50449;51.528;5.076;2022-09-25T17:23:29;32.15;;;30.55;;
64157;SDS011;50449;51.528;5.076;2022-09-25T17:26:02;32.75;;;31.13;;
64157;SDS011;50449;51.528;5.076;2022-09-25T17:28:30;32.55;;;30.75;;
64157;SDS011;50449;51.528;5.076;2022-09-25T17:30:57;31.73;;;30.17;;
64157;SDS011;50449;51.528;5.076;2022-09-25T17:33:25;34.33;;;32.53;;
64157;SDS011;50449;51.528;5.076;2022-09-25T17:35:52;30.98;;;29.38;;